Time;durP1;ratioP1;P1;durP2;ratioP2;P2;SDS_P1;SDS_P2;PMS_P1;PMS_P2;Temp;Humidity;BMP_temperature;BMP_pressure;BME280_temperature;BME280_humidity;BME280_pressure;Samples;Min_cycle;Max_cycle;Signal;HPM_P1;HPM_P2
2021/10/07 00:00:06;;;;;;;7.83;2.00;;;12.90;99.90;;;;;;5024930;28;20262;-70
2021/10/07 00:02:31;;;;;;;0.80;0.80;;;12.90;99.90;;;;;;5012524;28;20184;-70
2021/10/07 00:04:57;;;;;;;0.80;0.67;;;12.90;99.90;;;;;;5012571;28;20396;-71
2021/10/07 00:07:22;;;;;;;0.80;0.70;;;12.90;99.90;;;;;;5013903;28;20179;-71
2021/10/07 00:09:48;;;;;;;2.53;2.23;;;12.90;99.90;;;;;;5012804;28;20255;-71
2021/10/07 00:12:13;;;;;;;4.83;1.47;;;12.90;99.90;;;;;;5029224;28;20310;-71
2021/10/07 00:14:39;;;;;;;1.47;1.37;;;12.90;99.90;;;;;;5021730;28;20196;-71
2021/10/07 00:17:05;;;;;;;1.17;1.07;;;12.90;99.90;;;;;;5011949;28;20207;-71
2021/10/07 00:19:30;;;;;;;1.47;1.17;;;12.90;99.90;;;;;;5012740;28;20656;-70
2021/10/07 00:21:56;;;;;;;2.10;1.70;;;12.90;99.90;;;;;;5013678;28;20176;-71
2021/10/07 00:24:22;;;;;;;0.70;0.50;;;12.90;99.90;;;;;;5016359;28;20245;-71
2021/10/07 00:26:48;;;;;;;1.60;1.50;;;12.90;99.90;;;;;;5012202;28;20182;-71
2021/10/07 00:29:38;;;;;;;1.87;1.67;;;13.00;99.90;;;;;;5024585;28;20422;-71
2021/10/07 00:37:28;;;;;;;4.10;2.47;;;13.00;99.90;;;;;;5012616;28;20457;-70
2021/10/07 00:39:54;;;;;;;0.70;0.60;;;13.00;99.90;;;;;;5022752;28;20463;-71
2021/10/07 00:42:21;;;;;;;2.73;1.00;;;13.00;99.90;;;;;;5025052;28;20844;-71
2021/10/07 00:44:47;;;;;;;3.10;2.20;;;13.00;99.90;;;;;;5011969;28;20794;-70
2021/10/07 00:47:14;;;;;;;2.03;1.93;;;13.10;99.90;;;;;;5010937;28;21046;-71
2021/10/07 00:49:40;;;;;;;1.53;1.20;;;13.10;99.90;;;;;;5012463;28;20916;-71
2021/10/07 00:52:07;;;;;;;1.00;0.90;;;13.10;99.90;;;;;;5013079;28;20491;-71
2021/10/07 00:54:33;;;;;;;2.00;1.90;;;13.10;99.90;;;;;;5018822;28;20192;-72
2021/10/07 00:57:02;;;;;;;1.93;1.73;;;13.10;99.90;;;;;;5020920;28;20454;-70
2021/10/07 00:59:28;;;;;;;0.90;0.70;;;13.10;99.90;;;;;;5021339;28;20407;-71
2021/10/07 01:01:53;;;;;;;1.47;0.80;;;13.20;99.90;;;;;;5012439;28;20545;-71
2021/10/07 01:04:19;;;;;;;1.43;0.80;;;13.10;99.90;;;;;;5019793;28;20508;-71
2021/10/07 01:06:45;;;;;;;1.20;1.10;;;13.10;99.90;;;;;;5015836;28;20234;-71
2021/10/07 01:09:11;;;;;;;3.13;2.97;;;13.20;99.90;;;;;;5017001;28;20935;-71
2021/10/07 01:11:38;;;;;;;2.30;2.00;;;13.20;99.90;;;;;;5029990;28;20414;-71
2021/10/07 01:14:03;;;;;;;1.47;1.30;;;13.10;99.90;;;;;;5033273;28;20261;-71
2021/10/07 01:16:29;;;;;;;0.80;0.80;;;13.20;99.90;;;;;;5035369;28;20958;-71
2021/10/07 01:18:54;;;;;;;7.13;2.50;;;13.20;99.90;;;;;;5035367;28;20172;-71
2021/10/07 01:21:20;;;;;;;1.37;1.27;;;13.20;99.90;;;;;;5032441;28;20171;-70
2021/10/07 01:23:48;;;;;;;1.73;1.50;;;13.10;99.90;;;;;;5035502;28;20274;-71
2021/10/07 01:26:16;;;;;;;1.87;1.10;;;13.20;99.90;;;;;;5016566;28;20430;-71
2021/10/07 01:28:44;;;;;;;2.90;1.27;;;13.10;99.90;;;;;;5017470;28;20572;-71
2021/10/07 01:31:10;;;;;;;6.70;1.63;;;13.10;99.90;;;;;;5031445;28;20777;-70
2021/10/07 01:33:37;;;;;;;5.10;1.27;;;13.20;99.90;;;;;;5015534;28;20442;-70
2021/10/07 01:36:03;;;;;;;2.30;2.20;;;13.20;99.90;;;;;;5015083;28;20411;-70
2021/10/07 01:38:29;;;;;;;0.80;0.77;;;13.20;99.90;;;;;;5016812;28;20481;-70
2021/10/07 01:40:55;;;;;;;1.07;0.97;;;13.20;99.90;;;;;;5015372;28;20415;-71
2021/10/07 01:43:21;;;;;;;1.37;1.27;;;13.20;99.90;;;;;;5023995;28;20521;-71
2021/10/07 01:45:49;;;;;;;1.00;0.80;;;13.20;99.90;;;;;;5034854;28;20414;-70
2021/10/07 01:48:16;;;;;;;1.00;0.90;;;13.20;99.90;;;;;;5034320;28;20164;-71
2021/10/07 01:50:42;;;;;;;4.30;2.03;;;13.20;99.90;;;;;;5034405;28;20434;-70
2021/10/07 01:53:07;;;;;;;1.23;1.13;;;13.20;99.90;;;;;;5030850;28;20530;-70
2021/10/07 01:55:33;;;;;;;1.33;1.23;;;13.20;99.90;;;;;;5014907;28;20975;-70
2021/10/07 01:57:59;;;;;;;1.70;1.57;;;13.30;99.90;;;;;;5014164;28;20223;-70
2021/10/07 02:00:25;;;;;;;1.67;1.57;;;13.20;99.90;;;;;;5018006;28;20438;-71
2021/10/07 02:02:50;;;;;;;2.03;1.60;;;13.20;99.90;;;;;;5032838;28;20192;-70
2021/10/07 02:05:17;;;;;;;1.20;0.83;;;13.20;99.90;;;;;;5030453;28;20169;-70
2021/10/07 02:07:43;;;;;;;0.93;0.80;;;13.10;99.90;;;;;;5014339;28;20780;-70
2021/10/07 02:10:14;;;;;;;5.57;3.53;;;13.10;99.90;;;;;;5014879;28;20446;-70
2021/10/07 02:12:43;;;;;;;0.90;0.80;;;13.10;99.90;;;;;;5013877;28;20434;-70
2021/10/07 02:15:09;;;;;;;0.90;0.70;;;13.20;99.90;;;;;;5013079;28;20531;-70
2021/10/07 02:17:35;;;;;;;1.20;1.10;;;13.10;99.90;;;;;;5023778;28;20547;-70
2021/10/07 02:20:00;;;;;;;1.43;1.20;;;13.20;99.90;;;;;;5028343;28;20169;-70
2021/10/07 02:22:26;;;;;;;2.23;1.63;;;13.10;99.90;;;;;;5021595;28;20230;-70
2021/10/07 02:24:51;;;;;;;1.40;1.30;;;13.20;99.90;;;;;;5020543;28;20215;-71
2021/10/07 02:27:17;;;;;;;12.60;4.60;;;13.20;99.90;;;;;;5028615;28;20715;-71
2021/10/07 02:29:42;;;;;;;0.80;0.80;;;13.20;99.90;;;;;;5019396;28;20537;-71
2021/10/07 02:32:08;;;;;;;0.70;0.60;;;13.30;99.90;;;;;;5013331;28;20176;-71
2021/10/07 02:34:34;;;;;;;1.13;1.03;;;13.20;99.90;;;;;;5022044;28;20225;-69
2021/10/07 02:36:59;;;;;;;2.33;2.23;;;13.20;99.90;;;;;;5031879;28;20207;-71
2021/10/07 02:39:25;;;;;;;1.97;1.87;;;13.20;99.90;;;;;;5023821;28;20247;-71
2021/10/07 02:41:50;;;;;;;2.60;2.10;;;13.20;99.90;;;;;;5021703;28;20177;-71
2021/10/07 02:44:16;;;;;;;2.40;1.60;;;13.20;99.90;;;;;;5024205;28;20196;-71
2021/10/07 02:46:41;;;;;;;2.90;2.33;;;13.10;99.90;;;;;;5012810;28;20629;-70
2021/10/07 02:49:07;;;;;;;2.73;2.33;;;13.10;99.90;;;;;;5013138;28;20191;-70
2021/10/07 02:51:33;;;;;;;1.13;1.03;;;13.10;99.90;;;;;;5013423;28;20189;-70
2021/10/07 02:53:58;;;;;;;0.70;0.60;;;13.10;99.90;;;;;;5031546;28;20278;-72
2021/10/07 02:56:24;;;;;;;1.90;1.67;;;13.10;99.90;;;;;;4991366;28;1067816;-71
2021/10/07 02:58:49;;;;;;;1.23;1.13;;;13.10;99.90;;;;;;5014669;28;20197;-70
2021/10/07 03:01:15;;;;;;;1.87;1.43;;;13.10;99.90;;;;;;5030099;28;20188;-71
2021/10/07 03:03:40;;;;;;;0.70;0.60;;;13.10;99.90;;;;;;5016610;28;20191;-71
2021/10/07 03:06:06;;;;;;;2.33;0.80;;;13.10;99.90;;;;;;5023882;28;20199;-71
2021/10/07 03:08:31;;;;;;;5.93;2.03;;;13.10;99.90;;;;;;5025840;28;20175;-71
2021/10/07 03:10:57;;;;;;;1.17;1.03;;;13.10;99.90;;;;;;5013826;28;20168;-71
2021/10/07 03:13:23;;;;;;;1.63;1.53;;;13.10;99.90;;;;;;5013828;28;20202;-71
2021/10/07 03:15:50;;;;;;;13.73;1.37;;;13.10;99.90;;;;;;5012220;28;20506;-71
2021/10/07 03:18:16;;;;;;;1.87;1.77;;;13.10;99.90;;;;;;5013581;28;20933;-71
2021/10/07 03:20:41;;;;;;;0.90;0.80;;;13.10;99.90;;;;;;5032918;28;20426;-71
2021/10/07 03:23:07;;;;;;;0.93;0.93;;;13.10;99.90;;;;;;5017843;28;20500;-70
2021/10/07 03:25:33;;;;;;;2.40;2.10;;;13.10;99.90;;;;;;5014169;28;20244;-71
2021/10/07 03:27:58;;;;;;;1.00;0.90;;;13.10;99.90;;;;;;5013960;28;20802;-71
2021/10/07 03:30:24;;;;;;;7.80;1.40;;;13.10;99.90;;;;;;5014511;28;20187;-71
2021/10/07 03:32:50;;;;;;;0.90;0.60;;;13.10;99.90;;;;;;5013301;28;20678;-71
2021/10/07 03:35:15;;;;;;;2.53;1.37;;;13.10;99.90;;;;;;5014192;28;20180;-70
2021/10/07 03:37:41;;;;;;;0.80;0.80;;;13.10;99.90;;;;;;5028907;28;20613;-70
2021/10/07 03:40:09;;;;;;;4.30;2.00;;;13.10;99.90;;;;;;5032853;28;20194;-70
2021/10/07 03:42:35;;;;;;;2.80;2.70;;;13.10;99.90;;;;;;5032074;28;20238;-70
2021/10/07 03:45:03;;;;;;;1.57;1.40;;;13.10;99.90;;;;;;5026035;28;20787;-70
2021/10/07 03:47:29;;;;;;;0.83;0.83;;;13.10;99.90;;;;;;5013101;28;20926;-70
2021/10/07 03:49:58;;;;;;;3.23;1.00;;;13.10;99.90;;;;;;5015611;28;20423;-70
2021/10/07 03:52:27;;;;;;;5.00;4.80;;;13.10;99.90;;;;;;5031216;28;20270;-69
2021/10/07 03:54:53;;;;;;;2.13;0.93;;;13.10;99.90;;;;;;5029321;28;20882;-70
2021/10/07 03:57:19;;;;;;;1.20;0.70;;;13.10;99.90;;;;;;5018862;28;20807;-71
2021/10/07 03:59:44;;;;;;;2.40;1.03;;;13.10;99.90;;;;;;5022575;28;20430;-72
2021/10/07 04:02:10;;;;;;;2.90;2.30;;;13.10;99.90;;;;;;5032396;28;20887;-71
2021/10/07 04:04:35;;;;;;;4.97;1.30;;;13.10;99.90;;;;;;5014833;28;20282;-71
2021/10/07 04:07:01;;;;;;;1.00;0.90;;;13.10;99.90;;;;;;5025899;28;20183;-71
2021/10/07 04:09:26;;;;;;;4.97;2.20;;;13.10;99.90;;;;;;5031031;28;20184;-72
2021/10/07 04:11:52;;;;;;;1.20;1.10;;;13.10;99.90;;;;;;5029875;28;20171;-70
2021/10/07 04:14:17;;;;;;;0.70;0.70;;;13.10;99.90;;;;;;5017866;28;20246;-71
2021/10/07 04:16:43;;;;;;;4.00;1.67;;;13.10;99.90;;;;;;5012218;28;20222;-71
2021/10/07 04:19:08;;;;;;;1.90;1.23;;;13.10;99.90;;;;;;5014478;28;20258;-71
2021/10/07 04:21:34;;;;;;;3.93;1.60;;;13.10;99.90;;;;;;5012611;28;20274;-70
2021/10/07 04:24:00;;;;;;;4.57;4.07;;;13.10;99.90;;;;;;5013584;28;20262;-71
2021/10/07 04:26:27;;;;;;;4.60;4.27;;;13.10;99.90;;;;;;5015670;28;20172;-71
2021/10/07 04:28:52;;;;;;;1.77;0.97;;;13.10;99.90;;;;;;5015166;28;20621;-71
2021/10/07 04:31:18;;;;;;;1.57;1.47;;;13.10;99.90;;;;;;5011224;28;20500;-70
2021/10/07 04:33:44;;;;;;;1.67;1.57;;;13.10;99.90;;;;;;5012408;28;20546;-70
2021/10/07 04:36:09;;;;;;;1.43;0.87;;;13.10;99.90;;;;;;5011981;28;20214;-70
2021/10/07 04:38:35;;;;;;;1.13;0.87;;;13.10;99.90;;;;;;5012316;28;20752;-71
2021/10/07 04:41:01;;;;;;;1.07;0.97;;;13.10;99.90;;;;;;5014574;28;20175;-71
2021/10/07 04:43:26;;;;;;;1.53;1.43;;;13.00;99.90;;;;;;5031413;28;20238;-70
2021/10/07 04:45:52;;;;;;;1.73;1.17;;;13.00;99.90;;;;;;5031469;28;20175;-70
2021/10/07 04:48:17;;;;;;;1.17;1.07;;;13.10;99.90;;;;;;5015115;28;20180;-71
2021/10/07 04:50:43;;;;;;;4.00;2.57;;;13.10;99.90;;;;;;5012259;28;20654;-70
2021/10/07 04:53:08;;;;;;;4.00;1.10;;;13.00;99.90;;;;;;5017416;28;20199;-70
2021/10/07 04:55:34;;;;;;;0.80;0.73;;;13.00;99.90;;;;;;5017670;28;20263;-70
2021/10/07 04:58:00;;;;;;;2.93;2.73;;;13.00;99.90;;;;;;5031373;28;20203;-70
2021/10/07 05:00:25;;;;;;;3.77;0.90;;;13.00;99.90;;;;;;5027263;28;20229;-70
2021/10/07 05:02:51;;;;;;;3.13;1.00;;;13.00;99.90;;;;;;5026176;28;20202;-70
2021/10/07 05:05:16;;;;;;;2.13;1.40;;;13.00;99.90;;;;;;5027412;28;20168;-71
2021/10/07 05:07:43;;;;;;;0.70;0.70;;;13.00;99.90;;;;;;5031239;28;20186;-71
2021/10/07 05:10:10;;;;;;;1.90;1.80;;;13.00;99.90;;;;;;5030160;28;20264;-72
2021/10/07 05:12:38;;;;;;;0.70;0.50;;;13.00;99.90;;;;;;5017641;28;20429;-71
2021/10/07 05:15:05;;;;;;;4.10;2.40;;;12.90;99.90;;;;;;5022811;28;20473;-71
2021/10/07 05:17:30;;;;;;;1.83;1.00;;;12.90;99.90;;;;;;5019465;28;20462;-71
2021/10/07 05:19:56;;;;;;;5.47;1.77;;;13.00;99.90;;;;;;5011786;28;20921;-70
2021/10/07 05:22:22;;;;;;;0.70;0.60;;;13.00;99.90;;;;;;5011958;28;20169;-71
2021/10/07 05:24:47;;;;;;;1.50;1.40;;;13.10;99.90;;;;;;5012785;28;20247;-71
2021/10/07 05:27:13;;;;;;;1.77;1.63;;;13.00;99.90;;;;;;5011816;28;20242;-71
2021/10/07 05:29:39;;;;;;;0.80;0.70;;;13.00;99.90;;;;;;5019494;28;20692;-71
2021/10/07 05:32:04;;;;;;;2.07;1.97;;;13.10;99.90;;;;;;5024169;28;20627;-71
2021/10/07 05:34:30;;;;;;;9.03;1.33;;;13.00;99.90;;;;;;5023010;28;20192;-70
2021/10/07 05:36:55;;;;;;;0.70;0.53;;;13.00;99.90;;;;;;5011607;28;20693;-70
2021/10/07 05:39:21;;;;;;;1.57;0.97;;;13.00;99.90;;;;;;5011890;28;20576;-70
2021/10/07 05:41:46;;;;;;;3.53;3.33;;;13.00;99.90;;;;;;5012911;28;20174;-70
2021/10/07 05:44:12;;;;;;;0.80;0.77;;;13.00;99.90;;;;;;5018872;28;20321;-69
2021/10/07 05:46:38;;;;;;;1.90;1.63;;;13.00;99.90;;;;;;5017364;28;20188;-69
2021/10/07 05:49:05;;;;;;;1.27;1.00;;;13.00;99.90;;;;;;5031156;28;20179;-70
2021/10/07 05:51:31;;;;;;;2.00;1.90;;;12.90;99.90;;;;;;5031901;28;20422;-71
2021/10/07 05:53:57;;;;;;;2.17;0.80;;;12.90;99.90;;;;;;5033050;28;20947;-70
2021/10/07 05:56:22;;;;;;;4.00;0.90;;;12.90;99.90;;;;;;5032576;28;20441;-70
2021/10/07 05:58:48;;;;;;;4.17;2.83;;;12.90;99.90;;;;;;5023818;28;20215;-71
2021/10/07 06:01:14;;;;;;;2.30;1.83;;;13.00;99.90;;;;;;5033313;28;20640;-70
2021/10/07 06:03:39;;;;;;;2.17;1.90;;;13.10;99.90;;;;;;5028945;28;20653;-70
2021/10/07 06:06:05;;;;;;;3.73;2.40;;;13.10;99.90;;;;;;5032724;28;20543;-70
2021/10/07 06:08:30;;;;;;;0.70;0.50;;;13.10;99.90;;;;;;5016782;28;20204;-68
2021/10/07 06:10:56;;;;;;;0.70;0.70;;;13.20;99.90;;;;;;5016124;28;20203;-69
2021/10/07 06:13:21;;;;;;;0.80;0.70;;;13.30;99.90;;;;;;5022917;28;20279;-69
2021/10/07 06:15:48;;;;;;;0.83;0.80;;;13.40;99.90;;;;;;5016337;28;20598;-70
2021/10/07 06:18:14;;;;;;;1.57;0.80;;;13.40;99.90;;;;;;5014758;28;20219;-71
2021/10/07 06:20:40;;;;;;;1.83;1.73;;;13.40;99.90;;;;;;5014740;28;20913;-71
2021/10/07 06:23:06;;;;;;;1.47;1.37;;;13.50;99.90;;;;;;5014921;28;20975;-70
2021/10/07 06:25:34;;;;;;;3.67;3.47;;;13.60;99.90;;;;;;5023952;28;20168;-70
2021/10/07 06:28:01;;;;;;;7.50;2.70;;;13.60;99.90;;;;;;5015000;28;20259;-70
2021/10/07 06:30:26;;;;;;;1.90;1.57;;;13.70;99.90;;;;;;5016486;28;20418;-70
2021/10/07 06:32:52;;;;;;;1.20;1.13;;;13.70;99.90;;;;;;5033652;28;20442;-70
2021/10/07 06:35:18;;;;;;;1.77;1.23;;;13.80;99.90;;;;;;5022958;28;20187;-70
2021/10/07 06:37:44;;;;;;;0.90;0.90;;;13.80;99.90;;;;;;5014284;28;20211;-70
2021/10/07 06:40:10;;;;;;;1.07;0.70;;;13.90;99.90;;;;;;5019005;28;20960;-70
2021/10/07 06:42:37;;;;;;;3.27;1.50;;;13.90;99.90;;;;;;5033756;28;20195;-70
2021/10/07 06:45:05;;;;;;;1.33;1.17;;;13.80;99.90;;;;;;5033261;28;20414;-70
2021/10/07 06:47:32;;;;;;;1.43;1.33;;;13.90;99.90;;;;;;5033365;28;20426;-70
2021/10/07 06:49:58;;;;;;;2.23;1.80;;;13.80;99.90;;;;;;5031335;28;20471;-71
2021/10/07 06:52:23;;;;;;;1.20;1.10;;;13.80;99.90;;;;;;5033335;28;20568;-71
2021/10/07 06:54:49;;;;;;;0.70;0.63;;;13.80;99.90;;;;;;5023508;28;20538;-71
2021/10/07 06:57:14;;;;;;;1.20;1.10;;;13.90;99.90;;;;;;5012507;28;20286;-71
2021/10/07 06:59:40;;;;;;;3.33;2.87;;;13.90;99.90;;;;;;5025757;28;20176;-69
2021/10/07 07:02:06;;;;;;;5.30;3.80;;;14.00;99.90;;;;;;5032054;28;20688;-70
2021/10/07 07:04:31;;;;;;;1.20;1.10;;;14.10;99.90;;;;;;5032343;28;20187;-70
2021/10/07 07:06:57;;;;;;;3.70;2.77;;;14.20;99.90;;;;;;5015742;28;20180;-70
2021/10/07 07:09:22;;;;;;;1.17;1.07;;;14.30;99.90;;;;;;5025792;28;20179;-71
2021/10/07 07:11:48;;;;;;;1.73;1.63;;;14.40;99.90;;;;;;5032039;28;20850;-71
2021/10/07 07:14:13;;;;;;;1.40;1.30;;;14.60;99.90;;;;;;5032220;28;20195;-70
2021/10/07 07:16:39;;;;;;;4.90;3.70;;;14.70;99.90;;;;;;5018086;28;20246;-70
2021/10/07 07:19:04;;;;;;;1.20;1.03;;;14.90;99.90;;;;;;5013885;28;20206;-71
2021/10/07 07:21:32;;;;;;;1.67;1.20;;;14.80;99.90;;;;;;5014835;28;20554;-71
2021/10/07 07:24:00;;;;;;;1.03;0.93;;;15.00;99.90;;;;;;5013991;28;20187;-71
2021/10/07 07:26:26;;;;;;;2.33;1.00;;;15.00;99.90;;;;;;5014379;28;20427;-71
2021/10/07 07:28:52;;;;;;;6.47;2.03;;;15.10;99.90;;;;;;5013528;28;20415;-71
2021/10/07 07:31:18;;;;;;;3.17;3.07;;;15.10;99.90;;;;;;5013542;28;21058;-70
2021/10/07 07:33:46;;;;;;;3.80;2.20;;;15.10;99.90;;;;;;5014793;28;20206;-71
2021/10/07 07:36:22;;;;;;;5.20;4.10;;;15.10;99.90;;;;;;5018288;28;20435;-71
2021/10/07 07:38:50;;;;;;;1.77;1.67;;;15.10;99.90;;;;;;5013355;28;20698;-71
2021/10/07 07:41:16;;;;;;;1.97;1.73;;;15.20;99.90;;;;;;5029951;28;20413;-70
2021/10/07 07:43:42;;;;;;;1.97;1.87;;;15.30;99.90;;;;;;5031276;28;20430;-71
2021/10/07 07:46:09;;;;;;;2.60;0.97;;;15.40;99.90;;;;;;5029398;28;20476;-71
2021/10/07 07:48:36;;;;;;;2.47;2.30;;;15.50;99.90;;;;;;5030534;28;20924;-71
2021/10/07 07:51:02;;;;;;;4.00;1.77;;;15.70;99.90;;;;;;5032559;28;20422;-71
2021/10/07 07:53:28;;;;;;;2.23;2.10;;;15.80;99.90;;;;;;5024136;28;20426;-71
2021/10/07 07:55:54;;;;;;;1.83;1.73;;;15.80;99.90;;;;;;5021257;28;20526;-71
2021/10/07 07:58:20;;;;;;;1.63;1.37;;;15.90;99.90;;;;;;5021884;28;20215;-70
2021/10/07 08:00:47;;;;;;;2.30;1.43;;;16.10;99.90;;;;;;5023486;28;20804;-71
2021/10/07 08:03:13;;;;;;;1.27;1.17;;;16.30;99.90;;;;;;5020729;28;20840;-71
2021/10/07 08:05:38;;;;;;;2.03;1.93;;;16.40;99.90;;;;;;5021129;28;20450;-71
2021/10/07 08:08:04;;;;;;;1.60;1.50;;;16.40;99.90;;;;;;5021740;28;20226;-71
2021/10/07 08:10:30;;;;;;;1.93;1.77;;;16.40;99.90;;;;;;5022041;28;20568;-71
2021/10/07 08:12:56;;;;;;;1.03;0.93;;;16.40;99.90;;;;;;5021223;28;20430;-71
2021/10/07 08:15:21;;;;;;;2.23;0.90;;;16.70;99.90;;;;;;5019698;28;20172;-72
2021/10/07 08:17:47;;;;;;;3.37;2.23;;;16.70;99.90;;;;;;5021963;28;20179;-72
2021/10/07 08:20:14;;;;;;;8.13;3.13;;;16.60;99.90;;;;;;5021246;28;20172;-72
2021/10/07 08:22:40;;;;;;;2.90;1.97;;;16.70;99.90;;;;;;5021228;28;20660;-71
2021/10/07 08:25:08;;;;;;;2.30;1.07;;;16.80;99.90;;;;;;5019851;28;20822;-72
2021/10/07 08:27:34;;;;;;;1.20;0.70;;;16.60;99.90;;;;;;5022152;28;20481;-71
2021/10/07 08:30:00;;;;;;;1.77;0.80;;;16.40;99.90;;;;;;5021372;28;20419;-71
2021/10/07 08:32:25;;;;;;;0.80;0.70;;;16.30;99.90;;;;;;5022226;28;20545;-71
2021/10/07 08:34:51;;;;;;;0.70;0.50;;;16.10;99.90;;;;;;5019013;28;20196;-71
2021/10/07 08:37:17;;;;;;;1.27;1.17;;;15.90;99.90;;;;;;5021466;28;20204;-72
2021/10/07 08:39:43;;;;;;;3.37;0.80;;;15.80;99.90;;;;;;5022089;28;20175;-72
2021/10/07 08:42:08;;;;;;;0.80;0.80;;;16.20;99.90;;;;;;5020593;28;20179;-72
2021/10/07 08:44:34;;;;;;;2.00;1.80;;;17.70;99.90;;;;;;5023520;28;20277;-71
2021/10/07 08:47:00;;;;;;;3.23;2.03;;;19.60;99.90;;;;;;5011987;28;20180;-72
2021/10/07 08:49:29;;;;;;;0.90;0.80;;;20.70;99.90;;;;;;5013349;28;20184;-71
2021/10/07 08:51:56;;;;;;;1.77;1.50;;;20.80;99.90;;;;;;5026805;28;20429;-71
2021/10/07 08:54:21;;;;;;;2.53;2.33;;;21.80;99.90;;;;;;5030063;28;20477;-70
2021/10/07 08:56:49;;;;;;;1.00;0.90;;;23.00;99.90;;;;;;5030080;28;20492;-72
2021/10/07 08:59:16;;;;;;;1.90;1.40;;;23.60;99.90;;;;;;5025412;28;20415;-72
2021/10/07 09:01:47;;;;;;;1.17;1.07;;;24.20;99.90;;;;;;5015987;28;20425;-73
2021/10/07 09:04:25;;;;;;;1.33;1.23;;;23.70;99.90;;;;;;5030072;28;20445;-72
2021/10/07 09:06:52;;;;;;;2.87;1.47;;;22.30;99.90;;;;;;5026993;28;20493;-72
2021/10/07 09:09:18;;;;;;;1.23;1.03;;;21.00;99.90;;;;;;5012054;28;20485;-72
2021/10/07 09:11:50;;;;;;;3.13;2.10;;;20.90;99.90;;;;;;5011100;28;20450;-72
2021/10/07 09:14:18;;;;;;;1.53;1.43;;;20.30;99.90;;;;;;5018135;28;20439;-72
2021/10/07 09:16:46;;;;;;;2.80;2.40;;;20.00;99.90;;;;;;5017630;28;20818;-73
2021/10/07 09:19:39;;;;;;;1.73;1.33;;;19.70;99.90;;;;;;5021394;28;20423;-72
2021/10/07 09:22:21;;;;;;;0.80;0.70;;;20.30;99.90;;;;;;5017756;28;20400;-73
2021/10/07 09:24:48;;;;;;;1.50;1.30;;;21.00;99.90;;;;;;5031422;28;20532;-73
2021/10/07 09:27:19;;;;;;;2.20;1.83;;;22.30;99.90;;;;;;5034106;28;20406;-73
2021/10/07 09:29:51;;;;;;;1.10;1.00;;;22.60;99.90;;;;;;5023655;28;20518;-72
2021/10/07 09:32:31;;;;;;;1.17;0.83;;;22.70;99.90;;;;;;5015667;28;20818;-73
2021/10/07 09:35:01;;;;;;;3.87;1.33;;;21.90;99.90;;;;;;5015415;28;20430;-72
2021/10/07 09:37:38;;;;;;;1.20;1.10;;;21.20;99.90;;;;;;5015443;28;20450;-72
2021/10/07 09:40:17;;;;;;;2.03;0.80;;;20.80;99.90;;;;;;5015652;28;20533;-72
2021/10/07 09:42:54;;;;;;;0.90;0.80;;;20.30;99.90;;;;;;5015603;28;20410;-72
2021/10/07 09:45:24;;;;;;;1.27;1.00;;;19.40;99.90;;;;;;5026784;28;20417;-72
2021/10/07 09:47:54;;;;;;;1.87;1.77;;;19.20;99.90;;;;;;5026168;28;20430;-73
2021/10/07 09:50:33;;;;;;;1.17;0.70;;;19.10;99.90;;;;;;5018427;28;20424;-73
2021/10/07 09:53:04;;;;;;;2.10;1.10;;;18.80;99.90;;;;;;5034654;28;20445;-72
2021/10/07 09:55:33;;;;;;;2.17;2.00;;;18.70;99.90;;;;;;5033994;28;20409;-72
2021/10/07 09:58:04;;;;;;;0.80;0.70;;;18.50;99.90;;;;;;5034670;28;20461;-73
2021/10/07 10:00:35;;;;;;;1.00;0.90;;;18.30;99.90;;;;;;5034977;28;20495;-73
2021/10/07 10:03:01;;;;;;;2.53;1.20;;;18.30;99.90;;;;;;5028329;28;20439;-73
2021/10/07 10:05:30;;;;;;;1.17;1.00;;;18.00;99.90;;;;;;5014875;28;20761;-72
2021/10/07 10:07:55;;;;;;;0.80;0.60;;;17.90;99.90;;;;;;5015040;28;20962;-72
2021/10/07 10:10:22;;;;;;;1.63;1.50;;;17.90;99.90;;;;;;5014909;28;20403;-71
2021/10/07 10:12:47;;;;;;;3.43;1.47;;;17.90;99.90;;;;;;5013492;28;20172;-72
2021/10/07 10:15:15;;;;;;;2.23;1.00;;;18.00;99.90;;;;;;5019058;28;20433;-73
2021/10/07 10:17:41;;;;;;;6.93;3.93;;;18.10;99.90;;;;;;5034611;28;20537;-72
2021/10/07 10:20:18;;;;;;;2.43;1.93;;;17.80;99.90;;;;;;5034723;28;20399;-72
2021/10/07 10:22:53;;;;;;;1.90;1.77;;;17.90;99.90;;;;;;5034386;28;20233;-72
2021/10/07 10:25:19;;;;;;;5.73;3.30;;;17.90;99.90;;;;;;5034172;28;20783;-73
2021/10/07 10:27:49;;;;;;;3.53;2.67;;;17.90;99.90;;;;;;5028484;28;20502;-72
2021/10/07 10:30:26;;;;;;;3.10;1.47;;;18.10;99.90;;;;;;5014631;28;20537;-72
2021/10/07 10:32:53;;;;;;;10.43;2.13;;;19.20;99.90;;;;;;5014395;28;20394;-73
2021/10/07 10:35:39;;;;;;;1.70;1.00;;;20.20;99.90;;;;;;5014247;28;20400;-73
2021/10/07 10:38:09;;;;;;;1.67;1.47;;;20.90;99.90;;;;;;5022932;28;20540;-73
2021/10/07 10:40:35;;;;;;;2.50;2.00;;;21.10;99.90;;;;;;5026974;28;20422;-72
2021/10/07 10:43:21;;;;;;;3.63;1.43;;;20.80;99.90;;;;;;5033201;28;20507;-72
2021/10/07 10:45:47;;;;;;;1.43;0.93;;;20.60;99.90;;;;;;5033560;28;20429;-72
2021/10/07 10:48:13;;;;;;;2.37;2.17;;;19.90;99.90;;;;;;5033923;28;20768;-72
2021/10/07 10:50:39;;;;;;;17.77;1.90;;;19.70;99.90;;;;;;5022841;28;20882;-72
2021/10/07 10:53:21;;;;;;;1.77;1.60;;;19.20;99.90;;;;;;5012865;28;20526;-72
2021/10/07 10:55:49;;;;;;;2.40;1.83;;;19.10;99.90;;;;;;5013927;28;20168;-73
2021/10/07 10:58:16;;;;;;;2.57;1.37;;;18.60;99.90;;;;;;5024326;28;20458;-73
2021/10/07 11:00:44;;;;;;;2.17;1.97;;;18.60;99.90;;;;;;5021661;28;20494;-72
2021/10/07 11:03:19;;;;;;;3.63;1.77;;;18.30;99.90;;;;;;5020636;28;20807;-73
2021/10/07 11:06:05;;;;;;;1.27;1.17;;;18.20;99.90;;;;;;5021499;28;20413;-72
2021/10/07 11:08:32;;;;;;;3.43;2.20;;;18.20;99.90;;;;;;5024107;28;20982;-73
2021/10/07 11:10:59;;;;;;;5.07;3.03;;;18.30;99.90;;;;;;5020849;28;20426;-72
2021/10/07 11:13:28;;;;;;;1.10;1.00;;;18.00;99.90;;;;;;5023216;28;20922;-72
2021/10/07 11:15:59;;;;;;;2.07;1.53;;;17.70;99.90;;;;;;5022440;28;20411;-73
2021/10/07 11:18:28;;;;;;;1.77;1.67;;;17.80;99.90;;;;;;5018245;28;20834;-71
2021/10/07 11:20:59;;;;;;;2.10;1.77;;;17.70;99.90;;;;;;5023414;28;20414;-72
2021/10/07 11:23:25;;;;;;;3.90;1.63;;;17.90;99.90;;;;;;5022443;28;20437;-72
2021/10/07 11:25:53;;;;;;;3.43;2.50;;;18.00;99.90;;;;;;5020296;28;20411;-73
2021/10/07 11:28:39;;;;;;;4.93;2.50;;;18.00;99.90;;;;;;5022842;28;20418;-73
2021/10/07 11:31:12;;;;;;;3.97;2.07;;;17.80;99.90;;;;;;5022627;28;20419;-72
2021/10/07 11:33:40;;;;;;;7.03;1.47;;;17.80;99.90;;;;;;5021004;28;20434;-71
2021/10/07 11:36:07;;;;;;;1.60;1.17;;;17.70;99.90;;;;;;5023628;28;20422;-72
2021/10/07 11:38:36;;;;;;;5.33;2.80;;;17.80;99.90;;;;;;5021437;28;20951;-72
2021/10/07 11:41:01;;;;;;;3.80;1.57;;;17.70;99.90;;;;;;5020307;28;20499;-72
2021/10/07 11:43:32;;;;;;;2.10;1.63;;;17.50;99.90;;;;;;5021935;28;20474;-73
2021/10/07 11:46:03;;;;;;;2.90;2.10;;;17.70;99.90;;;;;;5020568;28;20259;-72
2021/10/07 11:48:29;;;;;;;1.00;0.90;;;18.00;99.90;;;;;;5019699;28;20788;-73
2021/10/07 11:51:04;;;;;;;5.30;3.50;;;19.50;99.90;;;;;;5021950;28;20429;-72
2021/10/07 11:53:36;;;;;;;2.33;2.13;;;21.70;99.90;;;;;;5022461;28;20195;-73
2021/10/07 11:56:09;;;;;;;2.47;1.93;;;22.10;99.90;;;;;;5021484;28;20426;-72
2021/10/07 11:58:35;;;;;;;2.67;1.67;;;21.80;99.90;;;;;;5032252;28;20547;-73
2021/10/07 12:01:01;;;;;;;1.83;1.53;;;22.10;99.90;;;;;;5022729;28;20463;-72
2021/10/07 12:03:27;;;;;;;3.20;2.10;;;23.70;99.90;;;;;;5013962;28;20218;-73
2021/10/07 12:06:03;;;;;;;1.73;1.47;;;25.00;99.90;;;;;;5012595;28;20420;-72
2021/10/07 12:08:31;;;;;;;2.80;2.10;;;26.90;99.90;;;;;;5013012;28;20279;-73
2021/10/07 12:11:03;;;;;;;2.77;1.30;;;27.60;97.00;;;;;;5013841;28;20422;-73
2021/10/07 12:13:31;;;;;;;1.53;1.17;;;28.10;94.20;;;;;;5013797;28;20433;-71
2021/10/07 12:16:16;;;;;;;1.17;1.07;;;28.40;88.50;;;;;;5023346;28;20412;-72
2021/10/07 12:18:43;;;;;;;3.00;1.93;;;29.80;86.80;;;;;;5012712;28;20455;-73
2021/10/07 12:21:42;;;;;;;2.33;1.47;;;29.90;75.30;;;;;;5013645;28;20415;-73
2021/10/07 12:24:10;;;;;;;1.47;1.37;;;29.90;73.20;;;;;;5023016;28;20446;-71
2021/10/07 12:26:46;;;;;;;2.60;1.90;;;29.30;70.30;;;;;;5013881;28;20412;-70
2021/10/07 12:29:26;;;;;;;1.93;1.73;;;29.50;73.90;;;;;;5013786;28;20418;-72
2021/10/07 12:31:54;;;;;;;2.73;2.00;;;29.40;72.40;;;;;;5011968;28;20789;-71
2021/10/07 12:34:20;;;;;;;1.63;1.33;;;30.90;72.70;;;;;;5011944;28;20445;-70
2021/10/07 12:36:53;;;;;;;3.00;2.43;;;31.10;64.40;;;;;;5025754;28;20425;-71
2021/10/07 12:39:26;;;;;;;1.87;1.57;;;30.00;63.60;;;;;;5030671;28;20410;-71
2021/10/07 12:41:59;;;;;;;1.63;1.53;;;29.00;66.80;;;;;;5019009;28;20415;-69
2021/10/07 12:44:33;;;;;;;1.43;1.13;;;28.80;67.80;;;;;;5012245;28;20920;-69
2021/10/07 12:47:06;;;;;;;2.07;1.97;;;29.70;67.90;;;;;;5023615;28;20916;-69
2021/10/07 12:49:52;;;;;;;2.50;1.67;;;29.90;65.70;;;;;;5013043;28;20422;-70
2021/10/07 12:52:20;;;;;;;6.20;5.23;;;29.40;62.60;;;;;;5012026;28;20423;-70